createdAt,value
2022-12-16T00:00:08.633Z,41.42
2022-12-16T00:02:35.792Z,39.33
2022-12-16T00:05:02.878Z,44.15
2022-12-16T00:07:29.739Z,44.60
2022-12-16T00:09:56.490Z,40.20
2022-12-16T00:12:23.258Z,40.20
2022-12-16T00:14:49.993Z,39.55
2022-12-16T00:17:17.509Z,35.65
2022-12-16T00:19:44.178Z,36.78
2022-12-16T00:22:10.917Z,45.78
2022-12-16T00:24:37.607Z,37.10
2022-12-16T00:27:04.360Z,40.47
2022-12-16T00:29:31.062Z,36.55
2022-12-16T00:31:57.810Z,38.17
2022-12-16T00:34:24.535Z,36.38
2022-12-16T00:36:51.857Z,36.55
2022-12-16T00:39:19.081Z,35.47
2022-12-16T00:41:47.598Z,36.17
2022-12-16T00:44:14.317Z,37.70
2022-12-16T00:46:40.998Z,38.92
2022-12-16T00:49:07.713Z,36.63
2022-12-16T00:51:34.404Z,39.13
2022-12-16T00:54:01.166Z,36.50
2022-12-16T00:56:27.837Z,34.72
2022-12-16T00:58:54.814Z,38.15
2022-12-16T01:01:21.773Z,35.45
2022-12-16T01:03:48.600Z,41.03
2022-12-16T01:06:17.706Z,38.05
2022-12-16T01:08:48.459Z,36.92
2022-12-16T01:11:19.808Z,36.53
2022-12-16T01:13:50.251Z,38.28
2022-12-16T01:18:45.874Z,33.22
2022-12-16T01:21:14.505Z,39.40
2022-12-16T01:23:41.253Z,36.95
2022-12-16T01:26:08.077Z,35.47
2022-12-16T01:28:34.913Z,35.47
2022-12-16T01:31:02.109Z,36.72
2022-12-16T01:33:30.326Z,35.33
2022-12-16T01:36:05.929Z,35.72
2022-12-16T01:38:33.445Z,38.83
2022-12-16T01:41:00.229Z,34.60
2022-12-16T01:43:37.996Z,39.85
2022-12-16T01:46:21.715Z,36.90
2022-12-16T01:48:51.410Z,37.63
2022-12-16T01:51:33.956Z,35.75
2022-12-16T01:54:04.853Z,38.47
2022-12-16T01:56:34.718Z,41.92
2022-12-16T01:59:02.889Z,39.65
2022-12-16T02:01:29.985Z,39.75
2022-12-16T02:04:01.881Z,39.90
2022-12-16T02:06:30.055Z,40.45
2022-12-16T02:09:00.298Z,42.55
2022-12-16T02:12:14.691Z,36.08
2022-12-16T02:15:20.945Z,33.50
2022-12-16T02:17:59.941Z,35.33
2022-12-16T02:21:03.137Z,45.97
2022-12-16T02:23:42.956Z,49.75
2022-12-16T02:26:24.212Z,49.38
2022-12-16T02:29:07.723Z,47.97
2022-12-16T02:31:55.259Z,50.85
2022-12-16T02:34:37.143Z,57.55
2022-12-16T02:37:10.373Z,62.55
2022-12-16T02:39:52.057Z,50.75
2022-12-16T02:42:27.707Z,49.92
2022-12-16T02:45:01.494Z,49.00
2022-12-16T02:47:29.665Z,40.53
2022-12-16T02:49:56.790Z,41.80
2022-12-16T02:52:30.217Z,38.67
2022-12-16T02:55:00.641Z,39.25
2022-12-16T02:57:41.935Z,39.65
2022-12-16T03:00:15.827Z,42.58
2022-12-16T03:02:49.575Z,39.70
2022-12-16T03:05:28.868Z,38.55
2022-12-16T03:07:59.607Z,41.17
2022-12-16T03:10:32.615Z,38.72
2022-12-16T03:13:01.446Z,42.08
2022-12-16T03:15:33.041Z,41.40
2022-12-16T03:18:01.898Z,41.83
2022-12-16T03:20:35.741Z,42.53
2022-12-16T03:23:08.577Z,40.63
2022-12-16T03:25:38.764Z,39.95
2022-12-16T03:28:28.297Z,40.15
2022-12-16T03:31:10.720Z,42.38
2022-12-16T03:33:56.590Z,39.00
2022-12-16T03:36:26.278Z,40.95
2022-12-16T03:38:55.572Z,39.90
2022-12-16T03:41:24.440Z,41.33
2022-12-16T03:43:51.939Z,36.45
2022-12-16T03:46:18.903Z,40.42
2022-12-16T03:48:47.360Z,34.92
2022-12-16T03:51:14.222Z,40.08
2022-12-16T03:53:40.955Z,33.70
2022-12-16T03:56:07.694Z,39.80
2022-12-16T03:58:35.348Z,37.13
2022-12-16T04:01:02.159Z,38.97
2022-12-16T04:03:29.012Z,38.70
2022-12-16T04:05:55.871Z,39.17
2022-12-16T04:08:22.631Z,40.53
2022-12-16T04:11:11.921Z,37.92
2022-12-16T04:13:57.220Z,40.38
2022-12-16T04:16:46.105Z,37.60
2022-12-16T04:19:42.604Z,43.17
2022-12-16T04:22:33.562Z,44.03
2022-12-16T04:25:12.932Z,43.08
2022-12-16T04:27:39.678Z,44.13
2022-12-16T04:30:22.148Z,45.53
2022-12-16T04:33:17.736Z,35.67
2022-12-16T04:36:03.460Z,40.58
2022-12-16T04:38:49.331Z,42.60
2022-12-16T04:41:35.204Z,41.50
2022-12-16T04:44:20.988Z,40.67
2022-12-16T04:47:06.454Z,42.00
2022-12-16T04:49:51.699Z,38.50
2022-12-16T04:52:37.403Z,37.95
2022-12-16T04:55:23.127Z,42.22
2022-12-16T04:58:14.106Z,40.60
2022-12-16T05:01:00.709Z,39.28
2022-12-16T05:03:46.876Z,41.35
2022-12-16T05:06:33.262Z,40.42
2022-12-16T05:09:18.396Z,43.15
2022-12-16T05:12:03.858Z,38.97
2022-12-16T05:14:49.001Z,40.25
2022-12-16T05:17:34.379Z,38.50
2022-12-16T05:20:19.752Z,38.95
2022-12-16T05:23:04.998Z,41.22
2022-12-16T05:25:50.847Z,38.58
2022-12-16T05:28:36.091Z,42.45
2022-12-16T05:31:21.919Z,41.00
2022-12-16T05:34:07.471Z,38.65
2022-12-16T05:36:52.647Z,38.25
2022-12-16T05:39:38.037Z,43.38
2022-12-16T05:42:23.418Z,41.35
2022-12-16T05:45:08.767Z,41.53
2022-12-16T05:47:54.025Z,44.95
2022-12-16T05:50:39.085Z,41.50
2022-12-16T05:53:24.388Z,42.35
2022-12-16T05:56:09.534Z,45.85
2022-12-16T05:58:55.002Z,41.63
2022-12-16T06:01:41.109Z,42.95
2022-12-16T06:04:26.647Z,42.38
2022-12-16T06:07:11.997Z,44.40
2022-12-16T06:09:57.385Z,42.55
2022-12-16T06:12:42.544Z,43.15
2022-12-16T06:15:28.318Z,40.35
2022-12-16T06:18:13.576Z,47.05
2022-12-16T06:20:59.007Z,41.58
2022-12-16T06:23:44.283Z,41.42
2022-12-16T06:26:29.506Z,44.63
2022-12-16T06:29:14.543Z,48.67
2022-12-16T06:31:59.979Z,42.88
2022-12-16T06:34:45.533Z,43.50
2022-12-16T06:37:30.907Z,40.40
2022-12-16T06:40:16.346Z,44.65
2022-12-16T06:43:01.596Z,46.22
2022-12-16T06:45:46.947Z,41.95
2022-12-16T06:48:32.197Z,46.92
2022-12-16T06:51:17.659Z,44.95
2022-12-16T06:54:03.368Z,45.22
2022-12-16T06:56:48.953Z,38.60
2022-12-16T06:59:34.456Z,46.05
2022-12-16T07:02:19.828Z,46.53
2022-12-16T07:05:05.433Z,51.72
2022-12-16T07:07:50.711Z,44.08
2022-12-16T07:10:36.045Z,42.20
2022-12-16T07:13:21.337Z,42.33
2022-12-16T07:16:06.807Z,43.22
2022-12-16T07:18:52.328Z,47.00
2022-12-16T07:21:37.525Z,49.45
2022-12-16T07:24:23.449Z,51.40
2022-12-16T07:27:08.644Z,53.20
2022-12-16T07:29:54.140Z,45.15
2022-12-16T07:32:39.394Z,50.78
2022-12-16T07:35:36.935Z,51.85
2022-12-16T07:38:37.779Z,44.83
2022-12-16T07:45:29.647Z,44.10
2022-12-16T07:48:15.172Z,45.72
2022-12-16T07:51:00.804Z,46.45
2022-12-16T07:53:46.732Z,45.72
2022-12-16T07:56:32.060Z,45.22
2022-12-16T07:59:17.240Z,47.75
2022-12-16T08:02:02.765Z,48.05
2022-12-16T08:04:48.030Z,48.42
2022-12-16T08:07:33.297Z,45.13
2022-12-16T08:10:18.543Z,44.60
2022-12-16T08:13:03.881Z,45.00
2022-12-16T08:15:49.479Z,44.47
2022-12-16T08:18:34.660Z,49.33
2022-12-16T08:21:19.871Z,44.83
2022-12-16T08:24:05.080Z,47.60
2022-12-16T08:26:50.394Z,53.83
2022-12-16T08:29:44.981Z,47.33
2022-12-16T08:32:31.923Z,44.30
2022-12-16T08:35:17.031Z,50.22
2022-12-16T08:38:02.397Z,48.15
2022-12-16T08:40:48.122Z,43.90
2022-12-16T08:43:34.362Z,43.53
2022-12-16T08:46:20.664Z,47.20
2022-12-16T08:49:06.195Z,47.30
2022-12-16T08:51:51.583Z,45.97
2022-12-16T08:54:36.923Z,48.08
2022-12-16T08:57:22.175Z,43.88
2022-12-16T09:00:07.847Z,45.88
2022-12-16T09:02:53.581Z,46.35
2022-12-16T09:05:41.471Z,43.47
2022-12-16T09:08:27.025Z,44.45
2022-12-16T09:11:12.203Z,49.70
2022-12-16T09:13:57.640Z,46.63
2022-12-16T09:16:43.233Z,47.72
2022-12-16T09:19:29.177Z,45.38
2022-12-16T09:22:14.451Z,48.70
2022-12-16T09:24:59.747Z,43.20
2022-12-16T09:27:45.139Z,42.45
2022-12-16T09:30:30.887Z,45.63
2022-12-16T09:33:16.542Z,42.13
2022-12-16T09:36:02.136Z,41.40
2022-12-16T09:38:47.413Z,42.75
2022-12-16T09:41:55.502Z,44.90
2022-12-16T09:45:13.586Z,42.40
2022-12-16T09:48:18.621Z,44.42
2022-12-16T09:51:04.946Z,45.22
2022-12-16T09:53:54.918Z,41.88
2022-12-16T09:59:41.010Z,43.38
2022-12-16T10:02:36.144Z,40.67
2022-12-16T10:05:22.091Z,42.30
2022-12-16T10:08:19.217Z,41.60
2022-12-16T10:14:02.961Z,39.90
2022-12-16T10:17:21.505Z,39.33
2022-12-16T10:20:09.392Z,37.67
2022-12-16T10:23:14.301Z,41.08
2022-12-16T10:26:05.673Z,34.92
2022-12-16T10:29:22.770Z,37.45
2022-12-16T10:32:08.155Z,39.65
2022-12-16T10:34:56.052Z,36.65
2022-12-16T10:38:02.148Z,38.47
2022-12-16T10:40:52.423Z,38.83
2022-12-16T10:44:02.978Z,35.17
2022-12-16T10:46:53.283Z,37.22
2022-12-16T10:52:25.534Z,37.92
2022-12-16T10:55:26.070Z,36.40
2022-12-16T10:58:34.140Z,41.25
2022-12-16T11:01:39.993Z,36.63
2022-12-16T11:04:52.890Z,38.65
2022-12-16T11:07:56.690Z,40.10
2022-12-16T11:10:44.990Z,39.20
2022-12-16T11:13:38.273Z,37.45
2022-12-16T11:16:31.792Z,43.40
2022-12-16T11:19:17.652Z,39.75
2022-12-16T11:22:03.549Z,38.50
2022-12-16T11:24:49.119Z,38.25
2022-12-16T11:27:45.864Z,38.03
2022-12-16T11:30:41.894Z,37.25
2022-12-16T11:33:40.756Z,36.92
2022-12-16T11:36:33.637Z,38.13
2022-12-16T11:39:21.845Z,36.33
2022-12-16T11:42:10.930Z,36.30
2022-12-16T11:45:13.976Z,35.80
2022-12-16T11:48:11.377Z,35.08
2022-12-16T11:51:01.698Z,35.45
2022-12-16T11:54:15.655Z,37.10
2022-12-16T11:57:03.386Z,35.97
2022-12-16T11:59:58.833Z,35.88
2022-12-16T12:02:55.048Z,35.17
2022-12-16T12:05:55.866Z,38.05
2022-12-16T12:08:50.112Z,34.78
2022-12-16T12:11:55.602Z,37.35
2022-12-16T12:15:12.007Z,37.15
2022-12-16T12:18:11.339Z,35.38
2022-12-16T12:21:31.611Z,36.30
2022-12-16T12:24:33.834Z,38.70
2022-12-16T12:27:46.214Z,36.83
2022-12-16T12:30:39.545Z,43.10
2022-12-16T12:33:29.420Z,41.17
2022-12-16T12:36:54.250Z,39.15
2022-12-16T12:39:58.909Z,39.92
2022-12-16T12:42:59.806Z,42.17
2022-12-16T12:46:05.911Z,40.45
2022-12-16T12:49:07.313Z,43.88
2022-12-16T12:52:25.414Z,43.72
2022-12-16T12:55:40.817Z,42.72
2022-12-16T12:58:28.639Z,43.72
2022-12-16T13:01:16.622Z,40.28
2022-12-16T13:04:09.344Z,42.20
2022-12-16T13:06:56.117Z,40.40
2022-12-16T13:09:55.686Z,42.72
2022-12-16T13:12:44.670Z,42.05
2022-12-16T13:15:57.563Z,42.22
2022-12-16T13:18:47.115Z,40.03
2022-12-16T13:21:54.947Z,39.38
2022-12-16T13:24:42.009Z,39.58
2022-12-16T13:27:43.647Z,41.17
2022-12-16T13:30:29.195Z,40.95
2022-12-16T13:33:16.804Z,42.20
2022-12-16T13:36:17.197Z,41.33
2022-12-16T13:39:08.113Z,41.67
2022-12-16T13:45:00.883Z,43.60
2022-12-16T13:48:01.368Z,40.03
2022-12-16T13:51:05.106Z,43.63
2022-12-16T13:53:56.082Z,38.90
2022-12-16T13:56:56.651Z,40.70
2022-12-16T13:59:45.359Z,41.50
2022-12-16T14:02:54.651Z,43.15
2022-12-16T14:05:48.920Z,45.40
2022-12-16T14:08:38.286Z,45.78
2022-12-16T14:11:32.672Z,45.65
2022-12-16T14:14:26.774Z,45.90
2022-12-16T14:17:19.791Z,47.70
2022-12-16T14:20:47.582Z,46.17
2022-12-16T14:23:55.838Z,50.75
2022-12-16T14:26:39.114Z,43.35
2022-12-16T14:29:43.221Z,44.55
2022-12-16T14:32:49.621Z,49.00
2022-12-16T14:35:44.474Z,47.08
2022-12-16T14:38:43.450Z,54.03
2022-12-16T14:41:39.967Z,51.20
2022-12-16T14:44:55.597Z,46.85
2022-12-16T14:47:41.788Z,52.28
2022-12-16T14:50:48.286Z,49.28
2022-12-16T14:53:42.578Z,46.58
2022-12-16T14:56:35.107Z,49.33
2022-12-16T14:59:27.817Z,47.53
2022-12-16T15:02:16.090Z,52.28
2022-12-16T15:05:02.368Z,48.25
2022-12-16T15:07:54.632Z,50.55
2022-12-16T15:10:45.153Z,50.10
2022-12-16T15:13:36.894Z,45.25
2022-12-16T15:16:23.918Z,48.25
2022-12-16T15:19:18.356Z,51.42
2022-12-16T15:22:04.373Z,44.97
2022-12-16T15:24:55.151Z,45.40
2022-12-16T15:27:41.081Z,48.35
2022-12-16T15:31:06.499Z,47.40
2022-12-16T15:33:57.836Z,49.45
2022-12-16T15:36:47.537Z,50.40
2022-12-16T15:39:52.276Z,44.55
2022-12-16T15:42:41.658Z,47.35
2022-12-16T15:46:09.576Z,48.10
2022-12-16T15:48:56.371Z,44.80
2022-12-16T15:51:52.089Z,42.83
2022-12-16T15:54:40.516Z,39.53
2022-12-16T15:57:58.971Z,38.17
2022-12-16T16:00:47.433Z,36.30
2022-12-16T16:03:36.110Z,36.25
2022-12-16T16:06:22.599Z,38.30
2022-12-16T16:09:11.067Z,36.58
2022-12-16T16:12:16.387Z,37.00
2022-12-16T16:15:02.495Z,37.08
2022-12-16T16:17:48.353Z,33.97
2022-12-16T16:20:37.440Z,34.58
2022-12-16T16:23:24.161Z,31.85
2022-12-16T16:26:09.991Z,36.00
2022-12-16T16:28:55.346Z,39.78
2022-12-16T16:31:42.231Z,38.50
2022-12-16T16:34:41.731Z,38.22
2022-12-16T16:37:34.014Z,37.33
2022-12-16T16:40:23.350Z,35.47
2022-12-16T16:43:11.706Z,35.85
2022-12-16T16:46:17.292Z,32.45
2022-12-16T16:49:02.403Z,33.53
2022-12-16T16:51:48.954Z,33.35
2022-12-16T16:54:34.495Z,34.58
2022-12-16T16:57:22.397Z,33.50
2022-12-16T17:00:07.746Z,34.58
2022-12-16T17:02:53.192Z,38.70
2022-12-16T17:05:38.536Z,37.47
2022-12-16T17:08:23.919Z,35.17
2022-12-16T17:11:09.421Z,38.95
2022-12-16T17:13:54.880Z,36.78
2022-12-16T17:16:40.407Z,37.80
2022-12-16T17:19:25.736Z,45.80
2022-12-16T17:22:11.414Z,46.47
2022-12-16T17:24:58.150Z,46.55
2022-12-16T17:27:44.458Z,47.88
2022-12-16T17:30:45.169Z,48.20
2022-12-16T17:33:33.027Z,48.17
2022-12-16T17:36:18.806Z,44.15
2022-12-16T17:39:04.736Z,52.60
2022-12-16T17:41:51.859Z,59.03
2022-12-16T17:44:37.862Z,53.25
2022-12-16T17:47:25.676Z,40.17
2022-12-16T17:50:10.974Z,47.17
2022-12-16T17:52:56.332Z,48.80
2022-12-16T17:55:41.670Z,41.92
2022-12-16T17:58:37.532Z,42.88
2022-12-16T18:01:25.195Z,46.08
2022-12-16T18:04:10.939Z,51.58
2022-12-16T18:06:56.382Z,46.90
2022-12-16T18:09:41.914Z,54.42
2022-12-16T18:12:27.296Z,45.20
2022-12-16T18:15:12.512Z,44.58
2022-12-16T18:17:57.827Z,48.28
2022-12-16T18:20:42.970Z,50.25
2022-12-16T18:26:22.441Z,51.97
2022-12-16T18:29:08.356Z,56.78
2022-12-16T18:31:53.691Z,55.88
2022-12-16T18:34:41.946Z,63.30
2022-12-16T18:37:33.565Z,57.17
2022-12-16T18:40:19.017Z,61.50
2022-12-16T18:43:07.755Z,58.40
2022-12-16T18:46:03.454Z,64.70
2022-12-16T18:48:48.837Z,51.17
2022-12-16T18:51:34.243Z,47.75
2022-12-16T18:54:30.665Z,45.53
2022-12-16T18:57:16.045Z,50.30
2022-12-16T19:00:01.407Z,51.92
2022-12-16T19:05:34.017Z,51.20
2022-12-16T19:08:19.427Z,53.08
2022-12-16T19:11:04.851Z,49.67
2022-12-16T19:13:50.187Z,53.08
2022-12-16T19:16:35.462Z,53.80
2022-12-16T19:19:21.010Z,50.13
2022-12-16T19:22:06.825Z,48.83
2022-12-16T19:24:55.068Z,49.17
2022-12-16T19:27:42.235Z,49.70
2022-12-16T19:30:28.658Z,50.72
2022-12-16T19:33:14.134Z,52.80
2022-12-16T19:35:59.625Z,49.67
2022-12-16T19:38:48.067Z,51.25
2022-12-16T19:41:37.832Z,46.10
2022-12-16T19:44:26.015Z,46.38
2022-12-16T19:47:16.592Z,47.58
2022-12-16T19:50:02.317Z,44.83
2022-12-16T19:52:47.831Z,47.00
2022-12-16T19:55:35.438Z,51.60
2022-12-16T19:58:21.668Z,47.80
2022-12-16T20:01:07.376Z,50.88
2022-12-16T20:03:53.562Z,53.15
2022-12-16T20:06:42.123Z,56.28
2022-12-16T20:09:27.508Z,58.25
2022-12-16T20:12:17.746Z,52.72
2022-12-16T20:15:06.456Z,55.55
2022-12-16T20:17:51.786Z,50.92
2022-12-16T20:20:37.294Z,50.67
2022-12-16T20:23:24.642Z,47.55
2022-12-16T20:26:18.858Z,48.25
2022-12-16T20:29:05.402Z,47.05
2022-12-16T20:31:51.388Z,51.22
2022-12-16T20:34:37.397Z,42.15
2022-12-16T20:37:23.448Z,44.60
2022-12-16T20:40:09.376Z,47.72
2022-12-16T20:42:54.964Z,54.28
2022-12-16T20:45:41.710Z,55.10
2022-12-16T20:48:31.602Z,52.75
2022-12-16T20:54:28.966Z,53.45
2022-12-16T20:57:14.886Z,46.60
2022-12-16T21:00:00.457Z,48.03
2022-12-16T21:02:45.846Z,49.40
2022-12-16T21:05:31.167Z,47.88
2022-12-16T21:11:02.045Z,47.38
2022-12-16T21:16:33.920Z,44.20
2022-12-16T21:19:19.119Z,50.85
2022-12-16T21:24:50.172Z,51.75
2022-12-16T21:27:35.444Z,54.47
2022-12-16T21:33:09.917Z,46.63
2022-12-16T21:35:58.465Z,46.53
2022-12-16T21:38:43.947Z,46.75
2022-12-16T21:41:29.282Z,43.97
2022-12-16T21:47:02.971Z,48.88
2022-12-16T21:49:49.284Z,49.70
2022-12-16T21:52:35.431Z,52.78
2022-12-16T21:55:21.087Z,46.08
2022-12-16T21:58:09.524Z,47.20
2022-12-16T22:00:58.893Z,47.05
2022-12-16T22:03:52.208Z,46.70
2022-12-16T22:06:40.023Z,49.63
2022-12-16T22:09:28.741Z,45.47
2022-12-16T22:12:14.356Z,45.58
2022-12-16T22:15:03.276Z,47.45
2022-12-16T22:17:57.791Z,42.88
2022-12-16T22:20:43.696Z,49.30
2022-12-16T22:23:28.958Z,42.78
2022-12-16T22:29:00.659Z,41.88
2022-12-16T22:31:46.188Z,41.53
2022-12-16T22:34:31.445Z,38.42
2022-12-16T22:36:21.565Z,54.05
2022-12-16T22:37:16.661Z,38.28
2022-12-16T22:40:02.007Z,40.17
2022-12-16T22:42:47.313Z,41.45
2022-12-16T22:45:32.536Z,42.88
2022-12-16T22:48:17.775Z,40.92
2022-12-16T22:53:48.591Z,39.28
2022-12-16T22:56:33.741Z,38.53
2022-12-16T22:59:18.973Z,46.35
2022-12-16T23:02:04.338Z,32.83
2022-12-16T23:04:49.778Z,36.88
2022-12-16T23:07:34.964Z,32.58
2022-12-16T23:10:20.588Z,33.33
2022-12-16T23:13:05.981Z,32.42
2022-12-16T23:15:52.006Z,37.22
2022-12-16T23:18:37.387Z,30.70
2022-12-16T23:24:11.309Z,33.95
2022-12-16T23:26:56.557Z,28.67
2022-12-16T23:32:27.347Z,29.88
2022-12-16T23:35:12.714Z,32.92
2022-12-16T23:40:43.336Z,27.15
2022-12-16T23:43:28.909Z,29.23
2022-12-16T23:46:14.315Z,28.17
2022-12-16T23:48:59.612Z,24.27
2022-12-16T23:51:44.859Z,22.55
2022-12-16T23:54:29.999Z,28.70
2022-12-16T23:57:15.257Z,27.65
